Airfield :
LOGIN :

Register | Disclaimer

   EN    FR    IT 

 










Legend :    VFR   Marginal VFR   IFR   Intensive IFR   Very Intensive IFR
Visi :
Ceiling :
>= 8 km
>= 3000ft
5 to 8 km
1000 to 3000 ft
1500m to 5 km
500 to 1000 ft
800 to 1500m
200 to 500 ft
< 800m
< 200 ft
Symbols :   Thunderstorms  Fog  Heavy snow  Heavy precipitations  Wind > 20 kt
SIGMETs :     Misc.  Thunderstorms  Icing  Turbulence  Mountain Waves  Volcanic Ashes







- Airport Elevation : 870 ft
- IATA code : ETZ
- Download approach charts


LFJL - Metz Nancy Lorraine

CURRENT METAR :
  • 192000Z AUTO 25005KT 9999 SCT035/// SCT041/// BKN076/// 12/09 Q1022 BECMG 3000 BR BKN003

EXPIRED METARs :
  • 191930Z AUTO 26006KT 9999 NCD 12/09 Q1021 BECMG 3000 BR BKN003
  • 191900Z AUTO 24005KT 9999 FEW031/// OVC064/// 11/09 Q1021 NOSIG
  • 191830Z AUTO 28003KT 9999 FEW032/// OVC050/// 12/08 Q1021 NOSIG
  • 191800Z AUTO 29005KT 9999 SCT043/// 12/08 Q1020 NOSIG
  • 191730Z AUTO 31009KT 9999 FEW027/// SCT039/// 13/08 Q1020 NOSIG

TAF TAF LFJL
Valid from the 19 at 18:00 until the 20 at 18:00 UTC


191700Z 1918/2018 30005KT 9999 FEW030 SCT060
BECMG 1921/1924 VRB02KT 3000 BR BKN003
TEMPO 2001/2007 0300 FG VV///
BECMG 2007/2009 6000 NSW BKN008
BECMG 2009/2011 BKN016
BECMG 2011/2013 BKN030 SCT060
BECMG 2013/2015 SCT030
BECMG 2015/2017 NSC
No reported NOTAMs for that airfield.



MET'MAP, your aeronautical weather chart ! - Copyright ORBIFLY December 2007 - Disclaimer

ORBIFLY MET'MAP TEAM :

Programming & Development : Alexandra Zaïnal
Concept & Development : Baudouin d'Aumeries
Co-Development & Prog : Marc-Olivier Méhu
Technical & hardware support : Manuel Goepfert

Contact : metmap@orbifly.com




SOURCES & CREDITS :

   NOAA